Time;durP1;ratioP1;P1;durP2;ratioP2;P2;SDS_P1;SDS_P2;PMS_P1;PMS_P2;Temp;Humidity;BMP_temperature;BMP_pressure;BME280_temperature;BME280_humidity;BME280_pressure;Samples;Min_cycle;Max_cycle;Signal;HPM_P1;HPM_P2
2021/05/13 00:01:28;;;;;;;12.60;10.43;;;8.80;99.90;;;9.06;100.00;94412.00;2239592;56;26133;-66
2021/05/13 00:04:14;;;;;;;10.73;9.63;;;8.70;99.90;;;8.98;100.00;94418.00;2463551;55;26600;-66
2021/05/13 00:07:00;;;;;;;13.67;10.57;;;8.80;99.90;;;9.21;100.00;94411.00;2238907;56;26618;-66
2021/05/13 00:09:48;;;;;;;11.57;10.37;;;8.70;99.90;;;8.96;100.00;94405.00;2239409;56;26168;-66
2021/05/13 00:12:40;;;;;;;11.63;10.00;;;8.90;99.90;;;9.34;100.00;94406.00;2463353;55;26144;-66
2021/05/13 00:15:30;;;;;;;11.13;9.23;;;8.80;99.90;;;9.13;100.00;94405.00;2462879;55;26728;-65
2021/05/13 00:18:16;;;;;;;11.50;9.30;;;8.80;99.90;;;9.20;100.00;94393.00;2239763;56;26150;-65
2021/05/13 00:21:02;;;;;;;11.20;9.57;;;8.80;99.90;;;9.18;100.00;94400.00;2238984;56;26163;-66
2021/05/13 00:23:49;;;;;;;10.90;9.80;;;8.60;99.90;;;8.83;100.00;94392.00;2463383;55;26165;-66
2021/05/13 00:26:37;;;;;;;10.73;9.40;;;8.70;99.90;;;9.02;100.00;94393.00;2239046;56;26148;-66
2021/05/13 00:29:26;;;;;;;9.87;8.87;;;8.70;99.90;;;9.07;100.00;94393.00;2463242;55;26638;-65
2021/05/13 00:32:13;;;;;;;11.40;9.00;;;8.70;99.90;;;9.14;100.00;94386.00;2239391;56;26248;-65
2021/05/13 00:34:59;;;;;;;10.97;9.47;;;8.80;99.90;;;9.20;100.00;94387.00;2463323;55;26292;-65
2021/05/13 00:37:47;;;;;;;13.40;10.03;;;8.80;99.90;;;9.06;100.00;94381.00;2239089;56;26696;-65
2021/05/13 00:40:34;;;;;;;10.13;9.13;;;8.60;99.90;;;8.85;100.00;94370.00;2463324;55;26669;-66
2021/05/13 00:43:20;;;;;;;9.93;8.93;;;8.70;99.90;;;9.04;100.00;94372.00;2239613;56;26553;-65
2021/05/13 00:46:06;;;;;;;10.60;9.40;;;8.50;99.90;;;8.82;100.00;94376.00;2463522;55;26574;-65
2021/05/13 00:49:01;;;;;;;10.77;9.60;;;8.60;99.90;;;8.90;100.00;94381.00;2239605;56;26563;-66
2021/05/13 00:51:48;;;;;;;12.03;9.53;;;8.50;99.90;;;8.82;100.00;94377.00;2462610;55;26666;-65
2021/05/13 00:54:36;;;;;;;10.80;9.70;;;8.60;99.90;;;8.85;100.00;94374.00;2239888;56;26633;-65
2021/05/13 00:57:22;;;;;;;11.20;9.33;;;8.50;99.90;;;8.79;100.00;94369.00;2463238;55;26660;-66
2021/05/13 01:00:31;;;;;;;10.50;8.80;;;8.50;99.90;;;8.85;100.00;94368.00;2239355;56;26632;-66
2021/05/13 01:03:17;;;;;;;11.17;9.30;;;8.50;99.90;;;8.72;100.00;94368.00;2239788;56;26101;-65
2021/05/13 01:06:08;;;;;;;10.53;8.37;;;8.40;99.90;;;8.70;100.00;94370.00;2238761;56;26120;-65
2021/05/13 01:08:55;;;;;;;12.20;8.40;;;8.50;99.90;;;8.82;100.00;94368.00;2239661;56;26116;-65
2021/05/13 01:11:43;;;;;;;9.73;8.73;;;8.40;99.90;;;8.56;100.00;94366.00;2239511;56;26414;-66
2021/05/13 01:14:38;;;;;;;9.13;8.23;;;8.30;99.90;;;8.52;100.00;94364.00;2463546;55;26156;-65
2021/05/13 01:17:37;;;;;;;9.63;8.40;;;8.30;99.90;;;8.53;100.00;94364.00;2463658;55;26721;-65
2021/05/13 01:20:26;;;;;;;10.20;9.10;;;8.30;99.90;;;8.55;100.00;94364.00;2239319;56;26731;-65
2021/05/13 01:23:13;;;;;;;10.43;8.30;;;8.20;99.90;;;8.47;100.00;94369.00;2239452;56;26129;-66
2021/05/13 01:26:05;;;;;;;10.27;9.23;;;8.30;99.90;;;8.66;100.00;94366.00;2239246;56;26132;-66
2021/05/13 01:28:52;;;;;;;10.03;8.67;;;8.30;99.90;;;8.65;100.00;94370.00;2239534;56;26214;-65
2021/05/13 01:31:39;;;;;;;10.97;8.93;;;8.40;99.90;;;8.66;100.00;94359.00;2239192;56;26193;-66
2021/05/13 01:34:25;;;;;;;9.83;8.13;;;8.30;99.90;;;8.64;100.00;94352.00;2463407;55;26690;-66
2021/05/13 01:37:12;;;;;;;11.47;8.77;;;8.40;99.90;;;8.79;100.00;94351.00;2238674;56;26265;-66
2021/05/13 01:39:59;;;;;;;9.80;8.77;;;8.30;99.90;;;8.62;100.00;94350.00;2463315;55;26598;-66
2021/05/13 01:42:49;;;;;;;10.47;8.97;;;8.30;99.90;;;8.55;100.00;94349.00;2238317;56;26699;-66
2021/05/13 01:45:35;;;;;;;11.50;8.73;;;8.20;99.90;;;8.48;100.00;94352.00;2237461;56;26152;-66
2021/05/13 01:48:22;;;;;;;10.10;8.83;;;8.40;99.90;;;8.68;100.00;94341.00;2233608;56;26184;-66
2021/05/13 01:51:08;;;;;;;9.93;8.93;;;8.30;99.90;;;8.64;100.00;94347.00;2462973;55;26235;-66
2021/05/13 01:53:55;;;;;;;13.13;9.13;;;8.20;99.90;;;8.39;100.00;94344.00;2239402;56;26181;-65
2021/05/13 01:56:42;;;;;;;10.83;8.60;;;8.30;99.90;;;8.70;100.00;94343.00;2463294;55;26557;-65
2021/05/13 01:59:28;;;;;;;9.90;8.87;;;8.40;99.90;;;8.72;100.00;94344.00;2239333;56;26535;-65
2021/05/13 02:02:15;;;;;;;10.97;8.90;;;8.30;99.90;;;8.57;100.00;94338.00;2239554;56;26594;-65
2021/05/13 02:05:01;;;;;;;10.23;8.80;;;8.30;99.90;;;8.64;100.00;94334.00;2462601;55;26193;-66
2021/05/13 02:07:48;;;;;;;11.70;8.37;;;8.40;99.90;;;8.76;100.00;94340.00;2238227;56;26232;-65
2021/05/13 02:10:34;;;;;;;9.43;8.43;;;8.40;99.90;;;8.56;100.00;94336.00;2238223;56;26300;-65
2021/05/13 02:13:20;;;;;;;10.37;8.33;;;8.40;99.90;;;8.59;100.00;94341.00;2239437;56;26144;-66
2021/05/13 02:16:07;;;;;;;10.27;8.13;;;8.30;99.90;;;8.57;100.00;94335.00;2463657;55;26561;-66
2021/05/13 02:18:54;;;;;;;9.33;7.63;;;8.40;99.90;;;8.69;100.00;94335.00;2238614;56;26593;-66
2021/05/13 02:21:40;;;;;;;10.07;8.07;;;8.50;99.90;;;8.73;100.00;94331.00;2239925;56;26147;-65
2021/05/13 02:24:26;;;;;;;10.13;8.27;;;8.40;99.90;;;8.62;100.00;94336.00;2463452;55;26109;-65
2021/05/13 02:27:13;;;;;;;9.70;7.60;;;8.40;99.90;;;8.62;100.00;94323.00;2239376;56;26989;-65
2021/05/13 02:30:00;;;;;;;8.73;7.83;;;8.40;99.90;;;8.74;100.00;94327.00;2463133;55;26205;-65
2021/05/13 02:32:46;;;;;;;11.00;8.40;;;8.60;99.90;;;8.93;100.00;94315.00;2238653;56;26190;-64
2021/05/13 02:35:32;;;;;;;8.40;7.60;;;8.60;99.90;;;8.80;100.00;94310.00;2238426;56;26545;-65
2021/05/13 02:38:19;;;;;;;10.73;8.30;;;8.60;99.90;;;8.78;100.00;94307.00;2238440;56;26968;-65
2021/05/13 02:41:05;;;;;;;9.17;7.63;;;8.40;99.90;;;8.56;100.00;94310.00;2239641;56;26642;-65
2021/05/13 02:43:52;;;;;;;8.43;7.07;;;8.30;99.90;;;8.42;100.00;94307.00;2462752;55;26112;-66
2021/05/13 02:46:38;;;;;;;7.97;7.17;;;8.20;99.90;;;8.43;100.00;94317.00;2239495;56;26189;-66
2021/05/13 02:49:25;;;;;;;9.07;7.80;;;8.50;99.90;;;8.93;100.00;94314.00;2462464;55;26756;-66
2021/05/13 02:52:11;;;;;;;8.73;7.13;;;8.50;99.90;;;8.82;100.00;94308.00;2239541;56;26649;-64
2021/05/13 02:54:57;;;;;;;8.43;7.13;;;8.50;99.90;;;8.79;100.00;94304.00;2462228;55;26239;-64
2021/05/13 02:57:46;;;;;;;9.33;7.17;;;8.60;99.90;;;8.95;100.00;94308.00;2237562;56;26124;-64
2021/05/13 03:00:35;;;;;;;7.83;7.03;;;8.60;99.90;;;8.96;100.00;94299.00;2239538;56;26642;-64
2021/05/13 03:03:21;;;;;;;7.77;6.67;;;8.60;99.90;;;8.76;100.00;94298.00;2238956;56;26129;-64
2021/05/13 03:06:07;;;;;;;8.70;7.10;;;8.60;99.90;;;8.80;100.00;94295.00;2239644;56;26200;-64
2021/05/13 03:08:55;;;;;;;7.60;6.57;;;8.50;99.90;;;8.75;100.00;94287.00;2462876;55;26172;-64
2021/05/13 03:11:41;;;;;;;7.17;6.13;;;8.40;99.90;;;8.67;100.00;94289.00;2239771;56;26193;-64
2021/05/13 03:14:27;;;;;;;7.80;6.13;;;8.50;99.90;;;8.75;100.00;94291.00;2463442;55;26233;-63
2021/05/13 03:17:14;;;;;;;7.77;6.90;;;8.40;99.90;;;8.73;100.00;94291.00;2239589;56;26248;-63
2021/05/13 03:20:00;;;;;;;7.20;6.50;;;8.50;99.90;;;8.78;100.00;94291.00;2463670;55;26168;-63
2021/05/13 03:22:49;;;;;;;8.40;7.13;;;8.40;99.90;;;8.68;100.00;94298.00;2239719;56;26164;-64
2021/05/13 03:25:37;;;;;;;9.17;7.10;;;8.40;99.90;;;8.56;100.00;94297.00;2462558;55;26140;-63
2021/05/13 03:28:23;;;;;;;7.33;6.17;;;8.40;99.90;;;8.74;100.00;94296.00;2238440;56;26245;-63
2021/05/13 03:31:09;;;;;;;8.07;6.67;;;8.40;99.90;;;8.71;100.00;94293.00;2239571;56;26128;-64
2021/05/13 03:33:55;;;;;;;10.67;6.90;;;8.50;99.90;;;8.83;100.00;94291.00;2462382;55;26700;-63
2021/05/13 03:36:42;;;;;;;7.30;6.60;;;8.30;99.90;;;8.45;100.00;94289.00;2239613;56;26148;-63
2021/05/13 03:39:28;;;;;;;7.77;6.80;;;8.30;99.90;;;8.63;100.00;94288.00;2463465;55;26125;-64
2021/05/13 03:42:14;;;;;;;8.50;6.90;;;8.30;99.90;;;8.60;100.00;94291.00;2239521;56;26117;-64
2021/05/13 03:45:01;;;;;;;7.87;6.90;;;8.40;99.90;;;8.64;100.00;94293.00;2463903;55;26088;-64
2021/05/13 03:47:47;;;;;;;9.10;7.33;;;8.20;99.90;;;8.41;100.00;94289.00;2238637;56;26100;-65
2021/05/13 03:50:35;;;;;;;8.97;6.67;;;8.20;99.90;;;8.43;100.00;94292.00;2239832;56;26100;-65
2021/05/13 03:53:22;;;;;;;8.07;6.80;;;8.30;99.90;;;8.56;100.00;94292.00;2463480;55;26105;-64
2021/05/13 03:56:10;;;;;;;8.17;6.47;;;8.40;99.90;;;8.75;100.00;94294.00;2238307;56;26228;-64
2021/05/13 03:58:59;;;;;;;8.40;6.60;;;8.30;99.90;;;8.64;100.00;94287.00;2238355;56;26136;-64
2021/05/13 04:01:48;;;;;;;9.23;6.97;;;8.30;99.90;;;8.52;100.00;94288.00;2463699;55;26117;-65
2021/05/13 04:04:36;;;;;;;7.83;6.53;;;8.20;99.90;;;8.30;100.00;94290.00;2462656;55;26247;-64
2021/05/13 04:07:22;;;;;;;7.73;6.37;;;8.10;99.90;;;8.40;100.00;94291.00;2239512;56;26654;-64
2021/05/13 04:10:11;;;;;;;8.17;6.40;;;8.10;99.90;;;8.40;100.00;94288.00;2463776;55;26210;-64
2021/05/13 04:12:58;;;;;;;10.10;6.70;;;8.20;99.90;;;8.61;100.00;94290.00;2239320;56;26121;-65
2021/05/13 04:15:46;;;;;;;7.03;6.33;;;8.40;99.90;;;8.75;100.00;94289.00;2463426;55;26116;-64
2021/05/13 04:18:33;;;;;;;6.90;6.13;;;8.30;99.90;;;8.49;100.00;94286.00;2239470;56;26550;-65
2021/05/13 04:21:19;;;;;;;7.17;6.30;;;8.20;99.90;;;8.42;100.00;94284.00;2464033;55;26211;-65
2021/05/13 04:24:08;;;;;;;6.70;6.00;;;8.30;99.90;;;8.67;100.00;94292.00;2239543;56;26578;-64
2021/05/13 04:26:54;;;;;;;7.00;5.90;;;8.30;99.90;;;8.63;100.00;94280.00;2463783;55;26164;-65
2021/05/13 04:29:40;;;;;;;7.93;5.97;;;8.50;99.90;;;8.90;100.00;94284.00;2239112;56;26140;-65
2021/05/13 04:32:26;;;;;;;7.57;5.93;;;8.60;99.90;;;8.91;100.00;94276.00;2463255;55;26121;-64
2021/05/13 04:35:13;;;;;;;6.70;5.70;;;8.60;99.90;;;8.91;100.00;94274.00;2240151;56;26089;-65
2021/05/13 04:37:59;;;;;;;7.50;5.57;;;8.60;99.90;;;8.85;100.00;94261.00;2463326;55;26248;-64
2021/05/13 04:40:49;;;;;;;6.87;5.53;;;8.50;99.90;;;8.80;100.00;94263.00;2239095;56;26645;-63
2021/05/13 04:43:37;;;;;;;5.20;4.70;;;8.50;99.90;;;8.83;100.00;94262.00;2463436;55;26209;-64
2021/05/13 04:46:26;;;;;;;7.57;4.87;;;8.40;99.90;;;8.72;100.00;94266.00;2239639;56;26708;-65
2021/05/13 04:49:18;;;;;;;6.03;5.23;;;8.50;99.90;;;8.79;100.00;94259.00;2238838;56;26578;-64
2021/05/13 04:52:04;;;;;;;6.90;5.23;;;8.50;99.90;;;8.80;100.00;94263.00;2239827;56;26112;-64
2021/05/13 04:54:54;;;;;;;5.63;5.03;;;8.40;99.90;;;8.58;100.00;94256.00;2239759;56;26112;-64
2021/05/13 04:57:40;;;;;;;5.30;4.80;;;8.50;99.90;;;8.75;100.00;94255.00;2239279;56;26562;-64
2021/05/13 05:00:27;;;;;;;5.50;5.00;;;8.50;99.90;;;8.74;100.00;94259.00;2239699;56;26108;-63
2021/05/13 05:03:13;;;;;;;7.07;4.57;;;8.40;99.90;;;8.64;100.00;94261.00;2462386;55;26166;-64
2021/05/13 05:05:59;;;;;;;5.40;4.90;;;8.50;99.90;;;8.82;100.00;94259.00;2239565;56;26204;-64
2021/05/13 05:08:46;;;;;;;5.77;5.13;;;8.50;99.90;;;8.76;100.00;94265.00;2462963;55;26160;-64
2021/05/13 05:11:32;;;;;;;5.07;4.57;;;8.60;99.90;;;8.84;100.00;94267.00;2239869;56;26092;-63
2021/05/13 05:14:18;;;;;;;6.20;4.93;;;8.70;99.90;;;8.94;100.00;94268.00;2463119;55;26516;-64
2021/05/13 05:17:05;;;;;;;5.03;4.53;;;8.70;99.90;;;8.98;100.00;94256.00;2239993;56;26112;-63
2021/05/13 05:19:51;;;;;;;4.93;4.53;;;8.70;99.90;;;8.85;100.00;94259.00;2238664;56;26198;-63
2021/05/13 05:22:37;;;;;;;5.10;4.60;;;8.70;99.90;;;8.95;100.00;94261.00;2463277;55;26134;-62
2021/05/13 05:25:24;;;;;;;5.10;4.60;;;8.60;99.90;;;8.98;100.00;94259.00;2240252;56;26490;-64
2021/05/13 05:28:11;;;;;;;5.20;4.70;;;8.70;99.90;;;9.03;100.00;94257.00;2463741;55;26172;-63
2021/05/13 05:30:57;;;;;;;5.37;4.87;;;8.80;99.90;;;9.08;100.00;94251.00;2239380;56;26109;-63
2021/05/13 05:33:43;;;;;;;5.20;4.70;;;8.70;99.90;;;8.94;100.00;94255.00;2463160;55;26224;-63
2021/05/13 05:36:30;;;;;;;7.90;4.77;;;8.70;99.90;;;9.11;100.00;94249.00;2240214;56;26189;-63
2021/05/13 05:39:17;;;;;;;5.57;4.70;;;8.50;99.90;;;8.80;100.00;94252.00;2463706;55;26166;-64
2021/05/13 05:42:03;;;;;;;4.83;4.40;;;8.60;99.90;;;9.04;100.00;94260.00;2240115;56;26242;-64
2021/05/13 05:44:50;;;;;;;5.57;5.07;;;8.40;99.90;;;8.84;100.00;94265.00;2239734;56;26117;-63
2021/05/13 05:47:36;;;;;;;5.17;4.47;;;8.40;99.90;;;8.81;100.00;94260.00;2462581;55;26129;-64
2021/05/13 05:50:23;;;;;;;5.60;4.97;;;8.40;99.90;;;8.81;100.00;94265.00;2239536;56;26120;-64
2021/05/13 05:53:10;;;;;;;4.93;4.50;;;8.70;99.90;;;9.34;100.00;94258.00;2463027;55;26132;-64
2021/05/13 05:55:56;;;;;;;4.63;4.17;;;9.00;99.90;;;9.38;100.00;94249.00;2239250;56;26129;-63
2021/05/13 05:58:43;;;;;;;5.33;4.40;;;9.10;99.90;;;9.53;100.00;94239.00;2463196;55;26093;-63
2021/05/13 06:01:29;;;;;;;5.70;5.07;;;9.00;99.90;;;9.42;100.00;94235.00;2239717;56;26584;-63
2021/05/13 06:04:15;;;;;;;8.47;7.70;;;8.90;99.90;;;9.20;100.00;94238.00;2462486;55;26566;-63
2021/05/13 06:07:02;;;;;;;7.43;5.93;;;8.70;99.90;;;9.22;100.00;94239.00;2238358;56;26310;-64
2021/05/13 06:09:48;;;;;;;8.43;7.63;;;8.80;99.90;;;9.27;100.00;94240.00;2237093;56;26284;-64
2021/05/13 06:12:36;;;;;;;6.80;6.20;;;8.70;99.90;;;9.19;100.00;94249.00;2463252;55;26104;-65
2021/05/13 06:15:25;;;;;;;4.90;4.50;;;8.70;99.90;;;9.25;100.00;94252.00;2239188;56;26145;-64
2021/05/13 06:18:11;;;;;;;5.77;5.10;;;9.00;99.90;;;9.67;100.00;94251.00;2462759;55;26602;-64
2021/05/13 06:20:58;;;;;;;5.80;3.93;;;9.10;99.90;;;9.78;100.00;94245.00;2239318;56;26149;-64
2021/05/13 06:23:50;;;;;;;4.47;3.97;;;9.30;99.90;;;9.94;100.00;94245.00;2463099;55;26593;-64
2021/05/13 06:26:36;;;;;;;4.30;3.53;;;9.40;99.90;;;9.85;100.00;94240.00;2239621;56;26273;-64
2021/05/13 06:29:23;;;;;;;4.00;3.33;;;9.40;99.90;;;10.03;100.00;94233.00;2462441;55;26101;-64
2021/05/13 06:32:09;;;;;;;4.03;3.63;;;9.50;99.90;;;10.16;100.00;94233.00;2239440;56;26127;-63
2021/05/13 06:34:55;;;;;;;4.03;3.40;;;9.50;99.90;;;10.02;100.00;94222.00;2462279;55;26157;-63
2021/05/13 06:37:41;;;;;;;5.67;3.97;;;9.80;99.90;;;10.26;100.00;94228.00;2239049;56;26551;-60
2021/05/13 06:40:29;;;;;;;4.30;3.80;;;9.90;99.90;;;10.26;100.00;94220.00;2463735;55;26677;-61
2021/05/13 06:43:16;;;;;;;5.23;4.17;;;9.70;99.90;;;10.19;100.00;94227.00;2239493;56;26527;-60
2021/05/13 06:46:02;;;;;;;3.87;3.57;;;9.80;99.90;;;10.37;100.00;94219.00;2239653;56;26282;-61
2021/05/13 06:48:48;;;;;;;5.03;3.57;;;9.90;99.90;;;10.61;100.00;94216.00;2462421;55;26871;-60
2021/05/13 06:51:34;;;;;;;4.37;3.50;;;10.00;99.90;;;10.52;100.00;94210.00;2239838;56;26204;-60
2021/05/13 06:54:21;;;;;;;3.50;3.10;;;10.00;99.90;;;10.61;100.00;94217.00;2463642;55;26597;-61
2021/05/13 06:57:07;;;;;;;3.70;3.40;;;10.00;99.90;;;10.57;100.00;94223.00;2240295;56;26145;-61
2021/05/13 06:59:54;;;;;;;3.90;3.57;;;9.90;99.90;;;10.56;100.00;94222.00;2463373;55;26658;-60
2021/05/13 07:02:40;;;;;;;4.90;3.17;;;10.00;99.90;;;10.60;100.00;94230.00;2238805;56;26594;-60
2021/05/13 07:05:27;;;;;;;3.40;3.10;;;10.30;99.90;;;10.91;100.00;94224.00;2239774;56;26232;-60
2021/05/13 07:08:13;;;;;;;3.37;2.90;;;10.40;99.90;;;10.80;100.00;94221.00;2463366;55;26108;-60
2021/05/13 07:11:01;;;;;;;3.23;2.93;;;10.60;99.90;;;11.19;100.00;94223.00;2239922;56;26728;-60
2021/05/13 07:13:47;;;;;;;4.00;3.17;;;10.70;99.90;;;11.22;100.00;94218.00;2463395;55;26227;-61
2021/05/13 07:16:34;;;;;;;3.10;2.80;;;10.80;99.90;;;11.46;100.00;94216.00;2239443;56;26596;-60
2021/05/13 07:19:20;;;;;;;4.03;3.20;;;10.60;99.90;;;11.27;100.00;94203.00;2462162;55;26321;-61
2021/05/13 07:22:07;;;;;;;6.03;3.13;;;10.80;99.90;;;11.45;100.00;94196.00;2239643;56;26654;-60
2021/05/13 07:24:53;;;;;;;4.30;3.90;;;11.00;99.90;;;11.50;100.00;94212.00;2462908;55;26148;-60
2021/05/13 07:27:40;;;;;;;4.37;3.67;;;10.70;99.90;;;11.27;100.00;94203.00;2238596;56;26250;-61
2021/05/13 07:30:27;;;;;;;11.97;9.67;;;10.50;99.90;;;11.00;100.00;94202.00;2239210;56;26188;-59
2021/05/13 07:33:13;;;;;;;8.80;6.87;;;10.40;99.90;;;11.30;100.00;94203.00;2462421;55;26566;-60
2021/05/13 07:35:59;;;;;;;5.60;5.10;;;10.50;99.90;;;11.20;100.00;94207.00;2239717;56;26124;-60
2021/05/13 07:38:47;;;;;;;5.20;4.60;;;10.30;99.90;;;11.13;100.00;94208.00;2463305;55;26148;-60
2021/05/13 07:41:34;;;;;;;6.13;5.53;;;10.50;99.90;;;11.34;100.00;94202.00;2239633;56;26201;-60
2021/05/13 07:44:20;;;;;;;6.10;5.50;;;10.60;99.90;;;11.58;100.00;94204.00;2238099;56;26165;-60
2021/05/13 07:47:09;;;;;;;6.00;5.00;;;10.60;99.90;;;11.50;100.00;94202.00;2238002;56;26229;-60
2021/05/13 07:49:55;;;;;;;6.33;5.30;;;11.00;99.90;;;11.92;100.00;94189.00;2238830;56;26144;-60
2021/05/13 07:52:44;;;;;;;6.30;5.67;;;10.60;99.90;;;11.45;100.00;94202.00;2239225;56;26165;-60
2021/05/13 07:55:30;;;;;;;5.57;4.93;;;10.70;99.90;;;11.74;100.00;94209.00;2239378;56;26143;-60
2021/05/13 07:58:17;;;;;;;5.77;5.13;;;10.50;99.90;;;11.55;100.00;94207.00;2462349;55;26157;-60
2021/05/13 08:01:03;;;;;;;5.30;4.80;;;10.80;99.90;;;11.72;100.00;94201.00;2239330;56;26213;-60
2021/05/13 08:03:49;;;;;;;5.63;4.87;;;11.30;99.90;;;12.32;100.00;94199.00;2461703;55;26732;-60
2021/05/13 08:06:36;;;;;;;8.00;6.07;;;11.20;99.90;;;12.01;100.00;94197.00;2239527;56;26152;-60
2021/05/13 08:09:23;;;;;;;6.63;4.57;;;10.90;99.90;;;11.48;100.00;94198.00;2463320;55;26128;-60
2021/05/13 08:12:10;;;;;;;6.73;5.40;;;10.80;99.90;;;11.74;100.00;94199.00;2239975;56;26621;-60
2021/05/13 08:14:56;;;;;;;7.50;5.50;;;11.40;99.90;;;12.07;100.00;94191.00;2462952;55;26112;-60
2021/05/13 08:17:44;;;;;;;6.27;5.17;;;11.30;99.90;;;11.90;100.00;94195.00;2239092;56;26588;-60
2021/05/13 08:20:30;;;;;;;7.33;5.67;;;11.20;99.90;;;12.03;100.00;94191.00;2239848;56;26117;-60
2021/05/13 08:23:17;;;;;;;7.27;5.30;;;11.10;99.90;;;11.62;100.00;94203.00;2463481;55;26219;-60
2021/05/13 08:26:03;;;;;;;6.23;5.63;;;11.00;99.90;;;11.57;100.00;94189.00;2239433;56;26614;-60
2021/05/13 08:28:50;;;;;;;7.17;5.80;;;10.70;99.90;;;11.52;100.00;94191.00;2462773;55;26156;-60
2021/05/13 08:31:36;;;;;;;9.27;6.80;;;10.80;99.90;;;11.85;100.00;94192.00;2239079;56;26165;-63
2021/05/13 08:34:23;;;;;;;8.97;6.33;;;11.20;99.90;;;12.19;100.00;94184.00;2462830;55;26112;-61
2021/05/13 08:37:09;;;;;;;7.03;6.33;;;11.30;99.90;;;12.51;100.00;94189.00;2239704;56;26236;-61
2021/05/13 08:39:55;;;;;;;6.50;5.80;;;11.60;99.90;;;12.65;100.00;94181.00;2463033;55;26201;-60
2021/05/13 08:42:41;;;;;;;6.37;5.27;;;11.80;99.90;;;12.95;100.00;94174.00;2239623;56;26163;-60
2021/05/13 08:45:28;;;;;;;9.20;7.37;;;11.80;99.90;;;12.76;100.00;94180.00;2239340;56;26625;-61
2021/05/13 08:48:15;;;;;;;7.63;6.30;;;11.80;99.90;;;12.78;100.00;94171.00;2462413;55;26107;-60
2021/05/13 08:51:01;;;;;;;20.83;13.13;;;11.60;99.90;;;12.48;100.00;94172.00;2239752;56;26208;-60
2021/05/13 08:53:52;;;;;;;7.77;6.17;;;11.90;99.90;;;13.04;100.00;94167.00;2463034;55;26621;-60
2021/05/13 08:56:39;;;;;;;7.07;5.80;;;12.10;99.90;;;13.24;100.00;94173.00;2239739;56;26184;-60
2021/05/13 08:59:27;;;;;;;6.40;5.20;;;11.60;99.90;;;12.68;100.00;94172.00;2463310;55;26312;-60
2021/05/13 09:02:15;;;;;;;6.80;5.50;;;12.10;99.90;;;13.05;100.00;94165.00;2239726;56;26181;-60
2021/05/13 09:05:03;;;;;;;12.97;5.83;;;11.60;99.90;;;12.28;100.00;94171.00;2463469;55;26148;-60
2021/05/13 09:07:52;;;;;;;6.87;5.93;;;11.80;99.90;;;12.92;100.00;94164.00;2239248;56;26236;-60
2021/05/13 09:10:38;;;;;;;5.87;5.28;;;12.30;99.90;;;13.35;100.00;94169.00;2463069;55;26101;-61
2021/05/13 09:13:29;;;;;;;6.45;4.55;;;12.60;99.90;;;14.17;100.00;94163.00;2239228;56;26900;-60
2021/05/13 09:16:29;;;;;;;6.40;5.03;;;12.90;99.90;;;14.06;100.00;94156.00;2463378;55;26113;-60
2021/05/13 09:19:25;;;;;;;8.02;4.90;;;13.20;99.90;;;14.68;100.00;94157.00;2462020;55;26224;-61
2021/05/13 09:22:11;;;;;;;8.52;4.75;;;14.10;99.90;;;15.51;100.00;94158.00;2463547;55;26124;-61
2021/05/13 09:24:59;;;;;;;7.43;4.50;;;13.30;99.90;;;14.58;100.00;94152.00;2239566;56;26138;-60
2021/05/13 09:27:48;;;;;;;5.55;4.60;;;13.00;99.90;;;14.68;100.00;94150.00;2239230;56;26176;-60
2021/05/13 09:30:36;;;;;;;6.43;4.47;;;13.20;99.90;;;14.50;100.00;94155.00;2239394;56;26213;-61
2021/05/13 09:33:29;;;;;;;6.15;4.78;;;13.20;99.90;;;14.06;100.00;94150.00;2238796;56;26151;-60
2021/05/13 09:36:23;;;;;;;7.97;4.70;;;12.70;99.90;;;13.57;100.00;94154.00;2239718;56;26251;-61
2021/05/13 09:39:23;;;;;;;5.97;5.10;;;12.30;99.90;;;13.16;100.00;94150.00;2463477;55;26136;-60
2021/05/13 09:42:09;;;;;;;5.23;4.73;;;12.10;99.90;;;12.80;100.00;94148.00;2463506;55;26142;-60
2021/05/13 09:44:56;;;;;;;6.30;4.90;;;11.90;99.90;;;12.63;100.00;94151.00;2463385;55;26167;-60
2021/05/13 09:47:42;;;;;;;6.90;5.03;;;12.20;99.90;;;13.38;100.00;94142.00;2238972;56;26190;-61
2021/05/13 09:50:29;;;;;;;6.60;4.93;;;12.20;99.90;;;13.37;100.00;94141.00;2462949;55;26926;-61
2021/05/13 09:53:21;;;;;;;7.47;4.63;;;12.50;99.90;;;13.44;100.00;94142.00;2239352;56;26151;-60
2021/05/13 09:56:24;;;;;;;6.50;5.47;;;12.30;99.90;;;13.33;100.00;94134.00;2462689;55;26185;-60
2021/05/13 09:59:31;;;;;;;6.37;5.33;;;12.00;99.90;;;12.50;100.00;94139.00;2462682;55;26092;-60
2021/05/13 10:02:17;;;;;;;5.30;3.93;;;11.90;99.90;;;12.54;100.00;94140.00;2462846;55;26519;-60
2021/05/13 10:05:06;;;;;;;6.77;4.43;;;11.60;99.90;;;11.96;100.00;94138.00;2239734;56;26164;-60
2021/05/13 10:07:52;;;;;;;4.53;4.13;;;11.50;99.90;;;12.06;100.00;94138.00;2462797;55;26120;-60
2021/05/13 10:10:41;;;;;;;6.57;4.30;;;11.70;99.90;;;12.39;100.00;94137.00;2238474;56;26558;-60
2021/05/13 10:13:30;;;;;;;5.53;4.70;;;12.20;99.90;;;12.83;100.00;94137.00;2463322;55;26615;-60
2021/05/13 10:16:17;;;;;;;6.60;4.57;;;12.20;99.90;;;12.71;100.00;94130.00;2237611;56;27081;-60
2021/05/13 10:19:12;;;;;;;6.43;4.30;;;12.50;99.90;;;13.10;100.00;94137.00;2461228;55;26180;-60
2021/05/13 10:22:01;;;;;;;6.20;4.40;;;12.20;99.90;;;12.67;100.00;94134.00;2463422;55;26119;-60
2021/05/13 10:25:17;;;;;;;5.73;4.10;;;12.40;99.90;;;13.09;100.00;94130.00;2239903;56;26157;-60
2021/05/13 10:28:05;;;;;;;5.20;3.93;;;12.40;99.90;;;12.84;100.00;94130.00;2239560;56;26206;-60
2021/05/13 10:31:05;;;;;;;4.67;3.80;;;12.10;99.90;;;12.54;100.00;94127.00;2463601;55;26320;-60
2021/05/13 10:33:52;;;;;;;4.90;4.23;;;12.20;99.90;;;12.58;100.00;94124.00;2462959;55;27195;-60
2021/05/13 10:36:38;;;;;;;3.90;3.50;;;12.20;99.90;;;12.69;100.00;94127.00;2239889;56;26193;-60
2021/05/13 10:39:24;;;;;;;4.43;3.50;;;12.60;99.90;;;12.98;100.00;94125.00;2239925;56;26123;-60
2021/05/13 10:42:31;;;;;;;4.83;3.80;;;12.90;99.90;;;13.43;100.00;94132.00;2463501;55;26087;-59
2021/05/13 10:45:35;;;;;;;6.03;3.30;;;13.00;99.90;;;13.89;100.00;94122.00;2463690;55;26189;-60
2021/05/13 10:48:25;;;;;;;4.37;3.20;;;13.90;99.90;;;14.87;100.00;94114.00;2463226;55;26529;-60
2021/05/13 10:51:26;;;;;;;5.20;3.47;;;14.10;99.90;;;15.08;100.00;94109.00;2240074;56;26140;-60
2021/05/13 10:54:47;;;;;;;4.90;3.47;;;14.50;99.90;;;15.40;100.00;94110.00;2239923;56;26240;-60
2021/05/13 10:57:52;;;;;;;5.70;3.40;;;14.60;99.90;;;15.01;100.00;94106.00;2463855;55;26663;-60
2021/05/13 11:00:38;;;;;;;3.47;2.63;;;14.00;99.90;;;14.33;100.00;94100.00;2463735;55;26557;-60
2021/05/13 11:03:26;;;;;;;3.50;3.07;;;13.30;99.90;;;13.42;100.00;94101.00;2239685;56;26145;-60
2021/05/13 11:06:43;;;;;;;3.53;2.80;;;12.90;99.90;;;12.99;100.00;94101.00;2463979;55;26573;-61
2021/05/13 11:10:01;;;;;;;4.73;3.00;;;12.40;99.90;;;12.82;100.00;94093.00;2463615;55;26097;-60
2021/05/13 11:12:48;;;;;;;4.13;2.90;;;12.50;99.90;;;12.69;100.00;94093.00;2239771;56;26550;-60
2021/05/13 11:15:42;;;;;;;3.27;2.60;;;12.60;99.90;;;13.03;100.00;94097.00;2463752;55;26150;-60
2021/05/13 11:18:29;;;;;;;5.37;2.80;;;12.70;99.90;;;13.17;100.00;94091.00;2239416;56;26541;-60
2021/05/13 11:21:15;;;;;;;4.97;2.77;;;12.80;99.90;;;13.14;100.00;94091.00;2463872;55;26152;-60
2021/05/13 11:24:02;;;;;;;2.77;2.40;;;12.90;99.90;;;13.39;100.00;94091.00;2239705;56;26307;-61
2021/05/13 11:26:56;;;;;;;3.00;2.70;;;13.30;99.90;;;13.90;100.00;94092.00;2463628;55;26173;-61
2021/05/13 11:29:51;;;;;;;3.40;2.50;;;13.40;99.90;;;14.23;100.00;94093.00;2239568;56;26968;-60
2021/05/13 11:32:38;;;;;;;3.50;2.40;;;13.80;99.90;;;14.37;100.00;94093.00;2239776;56;26167;-60
2021/05/13 11:35:24;;;;;;;3.20;2.33;;;14.10;99.90;;;14.73;100.00;94084.00;2464089;55;26555;-60
2021/05/13 11:38:19;;;;;;;3.62;2.30;;;14.20;99.90;;;14.70;100.00;94087.00;2464126;55;26308;-60
2021/05/13 11:41:06;;;;;;;3.60;2.10;;;13.90;99.90;;;14.16;100.00;94083.00;2464057;55;26132;-60
2021/05/13 11:43:53;;;;;;;3.30;2.40;;;13.90;99.90;;;14.29;100.00;94082.00;2239970;56;26146;-60
2021/05/13 11:46:41;;;;;;;3.37;2.27;;;13.80;99.90;;;14.20;100.00;94081.00;2239975;56;26103;-60